Terminal Aerodrome Forecast
Issued by NWS Charleston, WV

Home | Current Version | Previous Version | Text Only | Print | Product List | Glossary On
Versions: 1 2 3 4 5 6 7 8 9 10 11 12 13 14 15 16 17 18 19 20 21 22 23 24 25 26 27
539
FTUS41 KRLX 220133 AAA
TAFEKN
TAF AMD
KEKN 220133Z 2202/2224 VRB03KT 6SM BR BKN018 OVC025
      TEMPO 2202/2205 1SM BR BKN009
     FM220600 06003KT 6SM BR SCT008 BKN025
     FM220900 12004KT 6SM -SHRA OVC015
     FM221300 16006KT 4SM -SHRA OVC020
     FM221600 20006KT 2SM -SHRA OVC025
     FM222100 24004KT 3SM -SHRA OVC008=

USA.gov is the U.S. government's official web portal to all federal, state and local government web resources and services.